sensor_id;sensor_type;location;lat;lon;timestamp;pressure;altitude;pressure_sealevel;temperature;humidity
20023;BME280;10172;42.054;24.546;2023-04-19T00:00:39;97716.09;;;11.02;100.00
20023;BME280;10172;42.054;24.546;2023-04-19T00:03:05;97735.22;;;11.62;100.00
20023;BME280;10172;42.054;24.546;2023-04-19T00:05:31;97708.44;;;11.75;100.00
20023;BME280;10172;42.054;24.546;2023-04-19T00:07:57;97729.78;;;11.08;100.00
20023;BME280;10172;42.054;24.546;2023-04-19T00:10:23;97731.94;;;11.25;100.00
20023;BME280;10172;42.054;24.546;2023-04-19T00:12:48;97672.84;;;11.76;100.00
20023;BME280;10172;42.054;24.546;2023-04-19T00:15:14;97715.31;;;10.55;100.00
20023;BME280;10172;42.054;24.546;2023-04-19T00:17:39;97695.97;;;9.71;100.00
20023;BME280;10172;42.054;24.546;2023-04-19T00:20:05;97718.78;;;10.45;100.00
20023;BME280;10172;42.054;24.546;2023-04-19T00:22:31;97682.44;;;9.98;100.00
20023;BME280;10172;42.054;24.546;2023-04-19T00:24:56;97710.63;;;10.24;100.00
20023;BME280;10172;42.054;24.546;2023-04-19T00:27:22;97663.72;;;10.91;100.00
20023;BME280;10172;42.054;24.546;2023-04-19T00:29:47;97668.66;;;10.73;100.00
20023;BME280;10172;42.054;24.546;2023-04-19T00:32:14;97698.88;;;10.61;100.00
20023;BME280;10172;42.054;24.546;2023-04-19T00:34:40;97703.66;;;10.10;100.00
20023;BME280;10172;42.054;24.546;2023-04-19T00:37:07;97704.97;;;10.97;100.00
20023;BME280;10172;42.054;24.546;2023-04-19T00:39:32;97692.16;;;11.35;100.00
20023;BME280;10172;42.054;24.546;2023-04-19T00:41:58;97677.59;;;11.28;100.00
20023;BME280;10172;42.054;24.546;2023-04-19T00:44:23;97659.13;;;11.15;100.00
20023;BME280;10172;42.054;24.546;2023-04-19T00:46:49;97672.78;;;11.22;100.00
20023;BME280;10172;42.054;24.546;2023-04-19T00:49:16;97686.47;;;10.27;100.00
20023;BME280;10172;42.054;24.546;2023-04-19T00:51:42;97683.03;;;10.49;100.00
20023;BME280;10172;42.054;24.546;2023-04-19T00:54:08;97659.28;;;9.76;100.00
20023;BME280;10172;42.054;24.546;2023-04-19T00:56:34;97696.09;;;9.93;100.00
20023;BME280;10172;42.054;24.546;2023-04-19T00:59:00;97675.84;;;10.03;100.00
20023;BME280;10172;42.054;24.546;2023-04-19T01:01:26;97692.06;;;10.35;100.00
20023;BME280;10172;42.054;24.546;2023-04-19T01:03:52;97666.38;;;9.88;100.00
20023;BME280;10172;42.054;24.546;2023-04-19T01:06:17;97675.41;;;9.62;100.00
20023;BME280;10172;42.054;24.546;2023-04-19T01:08:43;97666.41;;;9.28;100.00
20023;BME280;10172;42.054;24.546;2023-04-19T01:11:08;97586.41;;;8.85;100.00
20023;BME280;10172;42.054;24.546;2023-04-19T01:13:34;97648.41;;;9.08;100.00
20023;BME280;10172;42.054;24.546;2023-04-19T01:15:59;97629.16;;;9.17;100.00
20023;BME280;10172;42.054;24.546;2023-04-19T01:18:25;97657.38;;;9.54;100.00
20023;BME280;10172;42.054;24.546;2023-04-19T01:20:53;97650.94;;;9.70;100.00
20023;BME280;10172;42.054;24.546;2023-04-19T01:23:19;97652.13;;;9.89;100.00
20023;BME280;10172;42.054;24.546;2023-04-19T01:25:44;97649.25;;;9.69;100.00
20023;BME280;10172;42.054;24.546;2023-04-19T01:28:10;97641.72;;;9.15;100.00
20023;BME280;10172;42.054;24.546;2023-04-19T01:30:36;97629.47;;;9.49;100.00
20023;BME280;10172;42.054;24.546;2023-04-19T01:33:02;97618.75;;;9.50;100.00
20023;BME280;10172;42.054;24.546;2023-04-19T01:35:27;97662.00;;;9.63;100.00
20023;BME280;10172;42.054;24.546;2023-04-19T01:37:53;97616.94;;;9.75;100.00
20023;BME280;10172;42.054;24.546;2023-04-19T01:40:23;97630.13;;;9.87;100.00
20023;BME280;10172;42.054;24.546;2023-04-19T01:42:48;97665.28;;;10.14;100.00
20023;BME280;10172;42.054;24.546;2023-04-19T01:45:14;97646.59;;;10.38;100.00
20023;BME280;10172;42.054;24.546;2023-04-19T01:47:39;97647.50;;;9.80;100.00
20023;BME280;10172;42.054;24.546;2023-04-19T01:50:05;97652.09;;;9.18;100.00
20023;BME280;10172;42.054;24.546;2023-04-19T01:52:31;97627.78;;;9.24;100.00
20023;BME280;10172;42.054;24.546;2023-04-19T01:54:56;97613.22;;;8.93;100.00
20023;BME280;10172;42.054;24.546;2023-04-19T01:57:22;97632.84;;;8.91;100.00
20023;BME280;10172;42.054;24.546;2023-04-19T01:59:48;97601.78;;;8.68;100.00
20023;BME280;10172;42.054;24.546;2023-04-19T02:02:14;97639.38;;;9.11;100.00
20023;BME280;10172;42.054;24.546;2023-04-19T02:04:40;97606.09;;;8.94;100.00
20023;BME280;10172;42.054;24.546;2023-04-19T02:07:05;97635.72;;;8.88;100.00
20023;BME280;10172;42.054;24.546;2023-04-19T02:09:34;97643.16;;;9.19;100.00
20023;BME280;10172;42.054;24.546;2023-04-19T02:12:00;97627.19;;;9.08;100.00
20023;BME280;10172;42.054;24.546;2023-04-19T02:14:26;97606.31;;;8.91;100.00
20023;BME280;10172;42.054;24.546;2023-04-19T02:16:51;97628.81;;;9.34;100.00
20023;BME280;10172;42.054;24.546;2023-04-19T02:19:16;97585.09;;;8.91;100.00
20023;BME280;10172;42.054;24.546;2023-04-19T02:21:42;97581.56;;;8.67;100.00
20023;BME280;10172;42.054;24.546;2023-04-19T02:24:07;97584.81;;;8.83;100.00
20023;BME280;10172;42.054;24.546;2023-04-19T02:26:33;97622.22;;;9.27;100.00
20023;BME280;10172;42.054;24.546;2023-04-19T02:28:58;97606.66;;;9.46;100.00
20023;BME280;10172;42.054;24.546;2023-04-19T02:31:24;97637.50;;;9.84;100.00
20023;BME280;10172;42.054;24.546;2023-04-19T02:33:49;97591.72;;;9.33;100.00
20023;BME280;10172;42.054;24.546;2023-04-19T02:36:15;97612.53;;;9.39;100.00
20023;BME280;10172;42.054;24.546;2023-04-19T02:38:40;97602.44;;;9.79;100.00
20023;BME280;10172;42.054;24.546;2023-04-19T02:41:06;97603.91;;;9.83;100.00
20023;BME280;10172;42.054;24.546;2023-04-19T02:43:31;97600.97;;;9.40;100.00
20023;BME280;10172;42.054;24.546;2023-04-19T02:45:57;97585.75;;;9.18;100.00
20023;BME280;10172;42.054;24.546;2023-04-19T02:48:22;97599.88;;;9.42;100.00
20023;BME280;10172;42.054;24.546;2023-04-19T02:50:48;97569.06;;;8.92;100.00
20023;BME280;10172;42.054;24.546;2023-04-19T02:53:13;97593.66;;;9.07;100.00
20023;BME280;10172;42.054;24.546;2023-04-19T02:55:39;97585.19;;;9.49;100.00
20023;BME280;10172;42.054;24.546;2023-04-19T02:58:04;97609.91;;;9.74;100.00
20023;BME280;10172;42.054;24.546;2023-04-19T03:00:30;97587.84;;;9.49;100.00
20023;BME280;10172;42.054;24.546;2023-04-19T03:02:56;97596.22;;;9.32;100.00
20023;BME280;10172;42.054;24.546;2023-04-19T03:05:22;97609.13;;;9.60;100.00
20023;BME280;10172;42.054;24.546;2023-04-19T03:07:48;97582.69;;;9.35;100.00
20023;BME280;10172;42.054;24.546;2023-04-19T03:10:13;97615.53;;;9.34;100.00
20023;BME280;10172;42.054;24.546;2023-04-19T03:12:38;97606.03;;;9.43;100.00
20023;BME280;10172;42.054;24.546;2023-04-19T03:15:05;97595.75;;;9.62;100.00
20023;BME280;10172;42.054;24.546;2023-04-19T03:17:30;97611.25;;;10.03;100.00
20023;BME280;10172;42.054;24.546;2023-04-19T03:19:56;97613.03;;;10.37;100.00
20023;BME280;10172;42.054;24.546;2023-04-19T03:22:21;97634.06;;;10.40;100.00
20023;BME280;10172;42.054;24.546;2023-04-19T03:24:47;97578.25;;;9.71;100.00
20023;BME280;10172;42.054;24.546;2023-04-19T03:27:12;97612.44;;;10.10;100.00
20023;BME280;10172;42.054;24.546;2023-04-19T03:29:38;97592.91;;;10.11;100.00
20023;BME280;10172;42.054;24.546;2023-04-19T03:32:04;97622.41;;;9.95;100.00
20023;BME280;10172;42.054;24.546;2023-04-19T03:34:29;97608.88;;;10.22;100.00
20023;BME280;10172;42.054;24.546;2023-04-19T03:36:55;97614.16;;;10.11;100.00
20023;BME280;10172;42.054;24.546;2023-04-19T03:39:20;97625.34;;;9.69;100.00
20023;BME280;10172;42.054;24.546;2023-04-19T03:41:46;97622.31;;;9.62;100.00
20023;BME280;10172;42.054;24.546;2023-04-19T03:44:11;97613.03;;;9.44;100.00
20023;BME280;10172;42.054;24.546;2023-04-19T03:46:36;97629.69;;;9.70;100.00
20023;BME280;10172;42.054;24.546;2023-04-19T03:49:02;97621.75;;;9.70;100.00
20023;BME280;10172;42.054;24.546;2023-04-19T03:51:27;97630.03;;;9.65;100.00
20023;BME280;10172;42.054;24.546;2023-04-19T03:53:53;97597.50;;;9.50;100.00
20023;BME280;10172;42.054;24.546;2023-04-19T03:56:18;97631.28;;;9.48;100.00
20023;BME280;10172;42.054;24.546;2023-04-19T03:58:44;97601.34;;;9.46;100.00
20023;BME280;10172;42.054;24.546;2023-04-19T04:01:18;97624.91;;;9.75;100.00
20023;BME280;10172;42.054;24.546;2023-04-19T04:03:44;97623.91;;;9.65;100.00
20023;BME280;10172;42.054;24.546;2023-04-19T04:06:09;97611.47;;;10.00;100.00
20023;BME280;10172;42.054;24.546;2023-04-19T04:08:34;97627.47;;;10.22;100.00
20023;BME280;10172;42.054;24.546;2023-04-19T04:11:00;97601.91;;;10.54;100.00
20023;BME280;10172;42.054;24.546;2023-04-19T04:13:26;97654.78;;;10.13;100.00
20023;BME280;10172;42.054;24.546;2023-04-19T04:15:51;97607.91;;;9.53;100.00
20023;BME280;10172;42.054;24.546;2023-04-19T04:18:16;97635.84;;;9.46;100.00
20023;BME280;10172;42.054;24.546;2023-04-19T04:20:43;97649.47;;;9.66;100.00
20023;BME280;10172;42.054;24.546;2023-04-19T04:23:08;97619.75;;;9.60;100.00
20023;BME280;10172;42.054;24.546;2023-04-19T04:25:35;97643.63;;;9.84;100.00
20023;BME280;10172;42.054;24.546;2023-04-19T04:28:02;97648.13;;;9.84;100.00
20023;BME280;10172;42.054;24.546;2023-04-19T04:30:28;97621.56;;;9.84;100.00
20023;BME280;10172;42.054;24.546;2023-04-19T04:32:54;97620.56;;;9.85;100.00
20023;BME280;10172;42.054;24.546;2023-04-19T04:35:22;97624.16;;;9.73;100.00
20023;BME280;10172;42.054;24.546;2023-04-19T04:37:47;97608.22;;;9.73;100.00
20023;BME280;10172;42.054;24.546;2023-04-19T04:40:13;97636.81;;;10.04;100.00
20023;BME280;10172;42.054;24.546;2023-04-19T04:42:40;97631.66;;;10.02;100.00
20023;BME280;10172;42.054;24.546;2023-04-19T04:45:06;97627.19;;;10.03;100.00
20023;BME280;10172;42.054;24.546;2023-04-19T04:47:33;97662.28;;;10.30;100.00
20023;BME280;10172;42.054;24.546;2023-04-19T04:49:59;97668.00;;;10.02;100.00
20023;BME280;10172;42.054;24.546;2023-04-19T04:52:25;97622.91;;;10.00;100.00
20023;BME280;10172;42.054;24.546;2023-04-19T04:54:50;97661.56;;;9.93;100.00
20023;BME280;10172;42.054;24.546;2023-04-19T04:57:15;97621.41;;;9.50;100.00
20023;BME280;10172;42.054;24.546;2023-04-19T04:59:41;97609.44;;;9.45;100.00
20023;BME280;10172;42.054;24.546;2023-04-19T05:02:06;97632.84;;;9.75;100.00
20023;BME280;10172;42.054;24.546;2023-04-19T05:04:32;97614.09;;;9.65;100.00
20023;BME280;10172;42.054;24.546;2023-04-19T05:06:57;97636.25;;;10.11;100.00
20023;BME280;10172;42.054;24.546;2023-04-19T05:09:23;97630.69;;;10.94;100.00
20023;BME280;10172;42.054;24.546;2023-04-19T05:11:48;97626.59;;;10.10;100.00
20023;BME280;10172;42.054;24.546;2023-04-19T05:14:14;97638.84;;;10.13;100.00
20023;BME280;10172;42.054;24.546;2023-04-19T05:16:39;97651.69;;;10.41;100.00
20023;BME280;10172;42.054;24.546;2023-04-19T05:19:05;97619.06;;;10.39;100.00
20023;BME280;10172;42.054;24.546;2023-04-19T05:21:32;97636.91;;;10.15;100.00
20023;BME280;10172;42.054;24.546;2023-04-19T05:23:58;97626.94;;;10.63;100.00
20023;BME280;10172;42.054;24.546;2023-04-19T05:26:23;97636.44;;;10.21;100.00
20023;BME280;10172;42.054;24.546;2023-04-19T05:28:49;97637.75;;;10.15;100.00
20023;BME280;10172;42.054;24.546;2023-04-19T05:31:14;97644.69;;;10.40;100.00
20023;BME280;10172;42.054;24.546;2023-04-19T05:33:40;97640.72;;;10.11;100.00
20023;BME280;10172;42.054;24.546;2023-04-19T05:36:06;97631.78;;;10.12;100.00
20023;BME280;10172;42.054;24.546;2023-04-19T05:38:32;97636.22;;;10.46;100.00
20023;BME280;10172;42.054;24.546;2023-04-19T05:40:57;97642.31;;;11.04;100.00
20023;BME280;10172;42.054;24.546;2023-04-19T05:43:23;97604.94;;;10.72;100.00
20023;BME280;10172;42.054;24.546;2023-04-19T05:45:48;97650.41;;;10.69;100.00
20023;BME280;10172;42.054;24.546;2023-04-19T05:48:14;97663.31;;;10.62;100.00
20023;BME280;10172;42.054;24.546;2023-04-19T05:50:39;97663.09;;;10.65;100.00
20023;BME280;10172;42.054;24.546;2023-04-19T05:53:05;97662.16;;;11.00;100.00
20023;BME280;10172;42.054;24.546;2023-04-19T05:55:30;97652.91;;;11.37;100.00
20023;BME280;10172;42.054;24.546;2023-04-19T05:57:57;97624.44;;;10.84;100.00
20023;BME280;10172;42.054;24.546;2023-04-19T06:00:23;97651.63;;;10.87;100.00
20023;BME280;10172;42.054;24.546;2023-04-19T06:02:48;97650.19;;;10.94;100.00
20023;BME280;10172;42.054;24.546;2023-04-19T06:05:14;97642.50;;;11.34;100.00
20023;BME280;10172;42.054;24.546;2023-04-19T06:07:39;97619.19;;;11.04;100.00
20023;BME280;10172;42.054;24.546;2023-04-19T06:10:05;97623.34;;;10.86;100.00
20023;BME280;10172;42.054;24.546;2023-04-19T06:12:31;97644.22;;;11.24;100.00
20023;BME280;10172;42.054;24.546;2023-04-19T06:14:56;97648.13;;;10.87;100.00
20023;BME280;10172;42.054;24.546;2023-04-19T06:17:22;97610.75;;;10.88;100.00
20023;BME280;10172;42.054;24.546;2023-04-19T06:19:53;97675.69;;;11.30;100.00
20023;BME280;10172;42.054;24.546;2023-04-19T06:22:19;97674.53;;;11.55;100.00
20023;BME280;10172;42.054;24.546;2023-04-19T06:24:46;97620.28;;;11.13;100.00
20023;BME280;10172;42.054;24.546;2023-04-19T06:27:11;97645.88;;;11.47;100.00
20023;BME280;10172;42.054;24.546;2023-04-19T06:29:37;97629.66;;;11.50;100.00
20023;BME280;10172;42.054;24.546;2023-04-19T06:32:02;97641.94;;;11.73;100.00
20023;BME280;10172;42.054;24.546;2023-04-19T06:34:28;97652.53;;;11.95;100.00
20023;BME280;10172;42.054;24.546;2023-04-19T06:36:53;97615.06;;;11.76;100.00
20023;BME280;10172;42.054;24.546;2023-04-19T06:39:19;97640.59;;;11.79;100.00
20023;BME280;10172;42.054;24.546;2023-04-19T06:41:44;97631.78;;;11.78;100.00
20023;BME280;10172;42.054;24.546;2023-04-19T06:44:11;97610.13;;;11.92;100.00
20023;BME280;10172;42.054;24.546;2023-04-19T06:46:37;97641.41;;;12.11;100.00
20023;BME280;10172;42.054;24.546;2023-04-19T06:49:03;97679.13;;;12.59;100.00
20023;BME280;10172;42.054;24.546;2023-04-19T06:51:28;97666.28;;;13.25;100.00
20023;BME280;10172;42.054;24.546;2023-04-19T06:53:54;97680.63;;;13.33;100.00
20023;BME280;10172;42.054;24.546;2023-04-19T06:56:47;97662.03;;;12.71;100.00
20023;BME280;10172;42.054;24.546;2023-04-19T06:59:18;97683.75;;;12.87;100.00
20023;BME280;10172;42.054;24.546;2023-04-19T07:01:45;97675.00;;;12.55;100.00
20023;BME280;10172;42.054;24.546;2023-04-19T07:04:11;97685.28;;;12.39;100.00
20023;BME280;10172;42.054;24.546;2023-04-19T07:06:38;97692.13;;;12.73;100.00
20023;BME280;10172;42.054;24.546;2023-04-19T07:09:04;97693.09;;;12.31;100.00
20023;BME280;10172;42.054;24.546;2023-04-19T07:11:30;97664.53;;;12.63;100.00
20023;BME280;10172;42.054;24.546;2023-04-19T07:13:56;97676.03;;;12.22;100.00
20023;BME280;10172;42.054;24.546;2023-04-19T07:16:23;97638.31;;;12.47;100.00
20023;BME280;10172;42.054;24.546;2023-04-19T07:18:48;97682.50;;;12.40;100.00
20023;BME280;10172;42.054;24.546;2023-04-19T07:21:14;97641.25;;;12.24;100.00
20023;BME280;10172;42.054;24.546;2023-04-19T07:23:39;97691.06;;;12.85;100.00
20023;BME280;10172;42.054;24.546;2023-04-19T07:26:05;97664.84;;;12.49;100.00
20023;BME280;10172;42.054;24.546;2023-04-19T07:28:31;97676.13;;;12.32;100.00
20023;BME280;10172;42.054;24.546;2023-04-19T07:30:57;97674.56;;;12.29;100.00
20023;BME280;10172;42.054;24.546;2023-04-19T07:33:23;97696.22;;;12.56;100.00
20023;BME280;10172;42.054;24.546;2023-04-19T07:35:49;97696.53;;;12.63;100.00
20023;BME280;10172;42.054;24.546;2023-04-19T07:38:16;97675.31;;;12.41;100.00
20023;BME280;10172;42.054;24.546;2023-04-19T07:40:41;97639.28;;;12.26;100.00
20023;BME280;10172;42.054;24.546;2023-04-19T07:43:07;97703.47;;;12.96;100.00
20023;BME280;10172;42.054;24.546;2023-04-19T07:45:32;97649.34;;;13.14;100.00
20023;BME280;10172;42.054;24.546;2023-04-19T07:47:58;97693.53;;;13.28;100.00
20023;BME280;10172;42.054;24.546;2023-04-19T07:50:24;97705.84;;;12.89;100.00
20023;BME280;10172;42.054;24.546;2023-04-19T07:52:50;97667.13;;;13.04;100.00
20023;BME280;10172;42.054;24.546;2023-04-19T07:55:16;97676.00;;;13.05;100.00
20023;BME280;10172;42.054;24.546;2023-04-19T07:57:41;97668.75;;;13.16;100.00
20023;BME280;10172;42.054;24.546;2023-04-19T08:00:15;97706.63;;;13.71;100.00
20023;BME280;10172;42.054;24.546;2023-04-19T08:02:44;97674.69;;;13.20;100.00
20023;BME280;10172;42.054;24.546;2023-04-19T08:05:11;97678.44;;;13.48;100.00
20023;BME280;10172;42.054;24.546;2023-04-19T08:07:37;97690.31;;;13.64;100.00
20023;BME280;10172;42.054;24.546;2023-04-19T08:10:03;97689.06;;;13.29;100.00
20023;BME280;10172;42.054;24.546;2023-04-19T08:12:29;97688.84;;;13.51;100.00
20023;BME280;10172;42.054;24.546;2023-04-19T08:14:54;97667.22;;;13.63;100.00
20023;BME280;10172;42.054;24.546;2023-04-19T08:17:20;97676.81;;;13.85;100.00
20023;BME280;10172;42.054;24.546;2023-04-19T08:19:48;97695.84;;;13.92;100.00
20023;BME280;10172;42.054;24.546;2023-04-19T08:22:14;97692.28;;;13.62;100.00
20023;BME280;10172;42.054;24.546;2023-04-19T08:24:41;97706.25;;;14.04;100.00
20023;BME280;10172;42.054;24.546;2023-04-19T08:27:08;97698.56;;;14.30;100.00
20023;BME280;10172;42.054;24.546;2023-04-19T08:29:33;97703.81;;;13.82;100.00
20023;BME280;10172;42.054;24.546;2023-04-19T08:31:59;97680.16;;;13.58;100.00
20023;BME280;10172;42.054;24.546;2023-04-19T08:34:26;97674.56;;;13.90;100.00
20023;BME280;10172;42.054;24.546;2023-04-19T08:36:51;97703.19;;;14.47;100.00
20023;BME280;10172;42.054;24.546;2023-04-19T08:39:17;97670.06;;;13.91;100.00
20023;BME280;10172;42.054;24.546;2023-04-19T08:41:42;97697.13;;;14.07;100.00
20023;BME280;10172;42.054;24.546;2023-04-19T08:44:10;97692.31;;;14.20;100.00
20023;BME280;10172;42.054;24.546;2023-04-19T08:46:37;97700.78;;;14.25;100.00
20023;BME280;10172;42.054;24.546;2023-04-19T08:49:04;97693.13;;;13.82;100.00
20023;BME280;10172;42.054;24.546;2023-04-19T08:51:31;97691.50;;;14.10;100.00
20023;BME280;10172;42.054;24.546;2023-04-19T08:53:57;97663.34;;;13.87;100.00
20023;BME280;10172;42.054;24.546;2023-04-19T08:56:23;97637.00;;;13.72;100.00
20023;BME280;10172;42.054;24.546;2023-04-19T08:58:49;97666.94;;;13.66;100.00
20023;BME280;10172;42.054;24.546;2023-04-19T09:01:15;97649.00;;;13.97;100.00
20023;BME280;10172;42.054;24.546;2023-04-19T09:03:43;97665.28;;;13.85;100.00
20023;BME280;10172;42.054;24.546;2023-04-19T09:06:12;97647.72;;;14.20;100.00
20023;BME280;10172;42.054;24.546;2023-04-19T09:08:39;97648.16;;;14.16;100.00
20023;BME280;10172;42.054;24.546;2023-04-19T09:11:05;97649.91;;;13.58;100.00
20023;BME280;10172;42.054;24.546;2023-04-19T09:13:31;97678.28;;;14.08;100.00
20023;BME280;10172;42.054;24.546;2023-04-19T09:15:57;97648.13;;;14.25;100.00
20023;BME280;10172;42.054;24.546;2023-04-19T09:18:26;97665.03;;;14.07;100.00
20023;BME280;10172;42.054;24.546;2023-04-19T09:20:52;97667.28;;;14.50;100.00
20023;BME280;10172;42.054;24.546;2023-04-19T09:23:25;97678.25;;;14.47;100.00
20023;BME280;10172;42.054;24.546;2023-04-19T09:25:58;97668.94;;;15.53;100.00
20023;BME280;10172;42.054;24.546;2023-04-19T09:28:29;97654.84;;;16.31;100.00
20023;BME280;10172;42.054;24.546;2023-04-19T09:30:55;97665.28;;;16.34;100.00
20023;BME280;10172;42.054;24.546;2023-04-19T09:33:34;97655.81;;;16.30;97.96
20023;BME280;10172;42.054;24.546;2023-04-19T09:36:01;97673.03;;;16.55;94.08
20023;BME280;10172;42.054;24.546;2023-04-19T09:38:27;97651.16;;;15.79;99.82
20023;BME280;10172;42.054;24.546;2023-04-19T09:41:05;97649.66;;;16.30;95.33
20023;BME280;10172;42.054;24.546;2023-04-19T09:43:31;97655.47;;;16.86;92.29
20023;BME280;10172;42.054;24.546;2023-04-19T09:45:56;97638.84;;;16.22;94.37
20023;BME280;10172;42.054;24.546;2023-04-19T09:48:22;97655.75;;;17.09;94.74
20023;BME280;10172;42.054;24.546;2023-04-19T09:50:58;97664.66;;;16.40;96.73
20023;BME280;10172;42.054;24.546;2023-04-19T09:53:26;97625.13;;;16.94;96.38
20023;BME280;10172;42.054;24.546;2023-04-19T09:55:52;97631.78;;;16.03;100.00
20023;BME280;10172;42.054;24.546;2023-04-19T09:58:19;97622.56;;;15.70;100.00
20023;BME280;10172;42.054;24.546;2023-04-19T10:00:45;97648.75;;;15.76;98.53
20023;BME280;10172;42.054;24.546;2023-04-19T10:03:14;97642.31;;;15.69;98.79
20023;BME280;10172;42.054;24.546;2023-04-19T10:05:41;97642.66;;;16.01;95.26
20023;BME280;10172;42.054;24.546;2023-04-19T10:08:10;97603.22;;;16.81;98.71
20023;BME280;10172;42.054;24.546;2023-04-19T10:10:36;97631.25;;;17.12;96.93
20023;BME280;10172;42.054;24.546;2023-04-19T10:13:06;97596.22;;;17.21;96.20
20023;BME280;10172;42.054;24.546;2023-04-19T10:15:35;97593.91;;;17.01;94.11
20023;BME280;10172;42.054;24.546;2023-04-19T10:18:02;97624.50;;;17.00;96.62
20023;BME280;10172;42.054;24.546;2023-04-19T10:20:36;97631.13;;;16.88;93.69
20023;BME280;10172;42.054;24.546;2023-04-19T10:23:06;97606.75;;;17.15;90.58
20023;BME280;10172;42.054;24.546;2023-04-19T10:25:35;97616.84;;;17.13;91.72
20023;BME280;10172;42.054;24.546;2023-04-19T10:28:02;97628.66;;;16.68;87.94
20023;BME280;10172;42.054;24.546;2023-04-19T10:30:27;97619.41;;;17.56;82.42
20023;BME280;10172;42.054;24.546;2023-04-19T10:32:56;97628.75;;;17.52;87.36
20023;BME280;10172;42.054;24.546;2023-04-19T10:35:25;97621.84;;;17.91;87.13
20023;BME280;10172;42.054;24.546;2023-04-19T10:38:07;97619.47;;;17.80;86.72
20023;BME280;10172;42.054;24.546;2023-04-19T10:43:24;97586.81;;;17.25;85.94
20023;BME280;10172;42.054;24.546;2023-04-19T10:45:50;97600.34;;;17.08;87.08
20023;BME280;10172;42.054;24.546;2023-04-19T10:51:15;97608.88;;;16.69;88.91
20023;BME280;10172;42.054;24.546;2023-04-19T10:56:17;97601.00;;;18.02;84.31
20023;BME280;10172;42.054;24.546;2023-04-19T11:01:37;97603.38;;;18.61;78.58
20023;BME280;10172;42.054;24.546;2023-04-19T11:04:04;97581.63;;;17.82;80.39
20023;BME280;10172;42.054;24.546;2023-04-19T11:06:32;97555.59;;;18.15;83.89
20023;BME280;10172;42.054;24.546;2023-04-19T11:08:58;97602.13;;;18.96;76.30
20023;BME280;10172;42.054;24.546;2023-04-19T11:11:25;97567.72;;;18.27;77.79
20023;BME280;10172;42.054;24.546;2023-04-19T11:13:52;97581.00;;;19.24;76.47
20023;BME280;10172;42.054;24.546;2023-04-19T11:16:19;97570.59;;;19.82;75.74
20023;BME280;10172;42.054;24.546;2023-04-19T11:18:45;97550.03;;;20.04;74.17
20023;BME280;10172;42.054;24.546;2023-04-19T11:21:13;97574.88;;;19.46;76.08
20023;BME280;10172;42.054;24.546;2023-04-19T11:23:39;97545.09;;;19.62;75.26
20023;BME280;10172;42.054;24.546;2023-04-19T11:26:08;97571.53;;;19.97;73.65
20023;BME280;10172;42.054;24.546;2023-04-19T11:28:34;97566.91;;;20.28;73.21
20023;BME280;10172;42.054;24.546;2023-04-19T11:30:59;97539.94;;;20.20;74.40
20023;BME280;10172;42.054;24.546;2023-04-19T11:33:25;97555.78;;;20.46;70.17
20023;BME280;10172;42.054;24.546;2023-04-19T11:35:53;97565.94;;;19.45;77.17
20023;BME280;10172;42.054;24.546;2023-04-19T11:38:18;97537.56;;;19.19;74.50
20023;BME280;10172;42.054;24.546;2023-04-19T11:40:44;97539.09;;;18.02;77.72
20023;BME280;10172;42.054;24.546;2023-04-19T11:43:09;97545.56;;;19.65;73.66
20023;BME280;10172;42.054;24.546;2023-04-19T11:45:36;97551.59;;;19.37;71.88
20023;BME280;10172;42.054;24.546;2023-04-19T11:48:06;97541.88;;;19.28;74.54
20023;BME280;10172;42.054;24.546;2023-04-19T11:50:44;97541.13;;;19.50;72.94
20023;BME280;10172;42.054;24.546;2023-04-19T11:53:14;97574.28;;;19.11;72.33
20023;BME280;10172;42.054;24.546;2023-04-19T11:55:44;97558.94;;;18.65;77.52
20023;BME280;10172;42.054;24.546;2023-04-19T11:58:23;97544.81;;;19.10;80.84
20023;BME280;10172;42.054;24.546;2023-04-19T12:00:50;97554.13;;;20.00;75.31
20023;BME280;10172;42.054;24.546;2023-04-19T12:03:15;97568.09;;;20.63;69.94
20023;BME280;10172;42.054;24.546;2023-04-19T12:05:55;97557.81;;;20.44;71.11
20023;BME280;10172;42.054;24.546;2023-04-19T12:08:46;97553.50;;;20.72;71.11
20023;BME280;10172;42.054;24.546;2023-04-19T12:11:12;97550.28;;;20.40;68.05
20023;BME280;10172;42.054;24.546;2023-04-19T12:13:38;97527.81;;;19.71;67.72
20023;BME280;10172;42.054;24.546;2023-04-19T12:16:05;97535.75;;;19.73;69.19
20023;BME280;10172;42.054;24.546;2023-04-19T12:19:10;97539.31;;;20.56;69.46
20023;BME280;10172;42.054;24.546;2023-04-19T12:21:38;97544.09;;;20.83;69.32
20023;BME280;10172;42.054;24.546;2023-04-19T12:24:03;97546.56;;;21.07;68.69
20023;BME280;10172;42.054;24.546;2023-04-19T12:26:29;97509.97;;;20.82;69.34
20023;BME280;10172;42.054;24.546;2023-04-19T12:28:55;97533.47;;;21.25;65.64
20023;BME280;10172;42.054;24.546;2023-04-19T12:31:21;97510.63;;;21.28;65.36
20023;BME280;10172;42.054;24.546;2023-04-19T12:33:47;97505.16;;;21.07;61.23
20023;BME280;10172;42.054;24.546;2023-04-19T12:36:13;97503.09;;;21.09;62.58
20023;BME280;10172;42.054;24.546;2023-04-19T12:38:39;97517.66;;;20.26;76.18
20023;BME280;10172;42.054;24.546;2023-04-19T12:41:04;97481.44;;;18.83;86.74
20023;BME280;10172;42.054;24.546;2023-04-19T12:43:30;97478.84;;;18.35;94.84
20023;BME280;10172;42.054;24.546;2023-04-19T12:45:57;97484.63;;;17.83;100.00
20023;BME280;10172;42.054;24.546;2023-04-19T12:48:23;97522.28;;;17.67;100.00
20023;BME280;10172;42.054;24.546;2023-04-19T12:50:49;97522.41;;;17.00;100.00
20023;BME280;10172;42.054;24.546;2023-04-19T12:53:14;97522.50;;;17.32;100.00